sensor_id;sensor_type;location;lat;lon;timestamp;P1;durP1;ratioP1;P2;durP2;ratioP2
57718;SDS011;43561;50.090;18.522;2022-07-01T00:05:31;43.20;;;27.23;;
57718;SDS011;43561;50.090;18.522;2022-07-01T00:15:33;34.03;;;27.80;;
57718;SDS011;43561;50.090;18.522;2022-07-01T00:25:35;41.22;;;25.20;;
57718;SDS011;43561;50.090;18.522;2022-07-01T00:35:37;36.90;;;25.85;;
57718;SDS011;43561;50.090;18.522;2022-07-01T00:45:43;36.67;;;26.33;;
57718;SDS011;43561;50.090;18.522;2022-07-01T00:55:49;33.85;;;26.73;;
57718;SDS011;43561;50.090;18.522;2022-07-01T01:05:51;39.70;;;29.17;;
57718;SDS011;43561;50.090;18.522;2022-07-01T01:15:53;29.60;;;26.02;;
57718;SDS011;43561;50.090;18.522;2022-07-01T01:25:55;47.88;;;27.05;;
57718;SDS011;43561;50.090;18.522;2022-07-01T01:35:57;25.67;;;21.85;;
57718;SDS011;43561;50.090;18.522;2022-07-01T01:45:59;38.83;;;26.95;;
57718;SDS011;43561;50.090;18.522;2022-07-01T01:56:02;32.00;;;23.30;;
57718;SDS011;43561;50.090;18.522;2022-07-01T02:06:05;36.53;;;28.45;;
57718;SDS011;43561;50.090;18.522;2022-07-01T02:16:07;31.20;;;26.42;;
57718;SDS011;43561;50.090;18.522;2022-07-01T02:26:09;33.47;;;26.63;;
57718;SDS011;43561;50.090;18.522;2022-07-01T02:36:11;34.75;;;25.60;;
57718;SDS011;43561;50.090;18.522;2022-07-01T02:46:13;31.38;;;23.67;;
57718;SDS011;43561;50.090;18.522;2022-07-01T02:56:15;29.38;;;22.17;;
57718;SDS011;43561;50.090;18.522;2022-07-01T03:06:17;32.88;;;25.52;;
57718;SDS011;43561;50.090;18.522;2022-07-01T03:16:19;35.70;;;24.35;;
57718;SDS011;43561;50.090;18.522;2022-07-01T03:26:21;28.83;;;23.45;;
57718;SDS011;43561;50.090;18.522;2022-07-01T03:36:23;24.55;;;20.25;;
57718;SDS011;43561;50.090;18.522;2022-07-01T03:46:25;29.13;;;23.77;;
57718;SDS011;43561;50.090;18.522;2022-07-01T03:56:27;31.70;;;24.05;;
57718;SDS011;43561;50.090;18.522;2022-07-01T04:06:30;30.02;;;23.13;;
57718;SDS011;43561;50.090;18.522;2022-07-01T04:16:32;31.20;;;22.10;;
57718;SDS011;43561;50.090;18.522;2022-07-01T04:26:34;25.70;;;20.35;;
57718;SDS011;43561;50.090;18.522;2022-07-01T04:36:39;20.15;;;18.00;;
57718;SDS011;43561;50.090;18.522;2022-07-01T04:46:42;22.95;;;17.88;;
57718;SDS011;43561;50.090;18.522;2022-07-01T04:56:44;26.00;;;19.83;;
57718;SDS011;43561;50.090;18.522;2022-07-01T05:06:50;23.98;;;17.35;;
57718;SDS011;43561;50.090;18.522;2022-07-01T05:38:42;21.25;;;15.68;;
57718;SDS011;43561;50.090;18.522;2022-07-01T05:48:55;28.95;;;15.85;;
57718;SDS011;43561;50.090;18.522;2022-07-01T05:59:34;23.60;;;16.38;;
57718;SDS011;43561;50.090;18.522;2022-07-01T06:09:42;18.98;;;15.57;;
57718;SDS011;43561;50.090;18.522;2022-07-01T06:51:11;16.95;;;14.43;;
57718;SDS011;43561;50.090;18.522;2022-07-01T07:01:13;14.80;;;12.32;;
57718;SDS011;43561;50.090;18.522;2022-07-01T07:11:15;15.60;;;13.45;;
57718;SDS011;43561;50.090;18.522;2022-07-01T07:21:17;18.83;;;13.00;;
57718;SDS011;43561;50.090;18.522;2022-07-01T07:31:19;17.15;;;12.88;;
57718;SDS011;43561;50.090;18.522;2022-07-01T07:41:21;17.15;;;14.93;;
57718;SDS011;43561;50.090;18.522;2022-07-01T07:51:23;20.83;;;13.30;;
57718;SDS011;43561;50.090;18.522;2022-07-01T08:01:27;16.80;;;13.63;;
57718;SDS011;43561;50.090;18.522;2022-07-01T08:11:30;19.38;;;14.93;;
57718;SDS011;43561;50.090;18.522;2022-07-01T08:21:32;35.38;;;15.65;;
57718;SDS011;43561;50.090;18.522;2022-07-01T08:31:35;15.07;;;11.80;;
57718;SDS011;43561;50.090;18.522;2022-07-01T08:41:40;14.32;;;11.82;;
57718;SDS011;43561;50.090;18.522;2022-07-01T08:51:43;13.00;;;10.80;;
57718;SDS011;43561;50.090;18.522;2022-07-01T09:01:53;15.10;;;9.63;;
57718;SDS011;43561;50.090;18.522;2022-07-01T09:12:09;8.38;;;7.47;;
57718;SDS011;43561;50.090;18.522;2022-07-01T09:22:11;15.30;;;10.00;;
57718;SDS011;43561;50.090;18.522;2022-07-01T09:32:20;7.70;;;6.43;;
57718;SDS011;43561;50.090;18.522;2022-07-01T09:42:26;12.98;;;7.72;;
57718;SDS011;43561;50.090;18.522;2022-07-01T09:52:28;6.80;;;6.10;;
57718;SDS011;43561;50.090;18.522;2022-07-01T10:02:37;11.95;;;5.70;;
57718;SDS011;43561;50.090;18.522;2022-07-01T10:12:43;7.53;;;6.75;;
57718;SDS011;43561;50.090;18.522;2022-07-01T10:22:49;13.45;;;5.70;;
57718;SDS011;43561;50.090;18.522;2022-07-01T10:32:52;13.35;;;9.43;;
57718;SDS011;43561;50.090;18.522;2022-07-01T10:43:09;10.07;;;6.93;;
57718;SDS011;43561;50.090;18.522;2022-07-01T10:53:45;10.38;;;9.27;;
57718;SDS011;43561;50.090;18.522;2022-07-01T11:13:57;12.45;;;8.27;;
57718;SDS011;43561;50.090;18.522;2022-07-01T11:23:59;14.25;;;9.40;;
57718;SDS011;43561;50.090;18.522;2022-07-01T11:34:01;9.40;;;8.40;;
57718;SDS011;43561;50.090;18.522;2022-07-01T11:44:04;14.38;;;8.68;;
57718;SDS011;43561;50.090;18.522;2022-07-01T11:54:09;10.82;;;9.82;;
57718;SDS011;43561;50.090;18.522;2022-07-01T12:04:23;11.10;;;9.27;;
57718;SDS011;43561;50.090;18.522;2022-07-01T12:14:26;13.45;;;9.95;;
57718;SDS011;43561;50.090;18.522;2022-07-01T12:24:35;15.85;;;11.05;;
57718;SDS011;43561;50.090;18.522;2022-07-01T12:34:41;11.60;;;9.23;;
57718;SDS011;43561;50.090;18.522;2022-07-01T12:44:45;11.48;;;10.52;;
57718;SDS011;43561;50.090;18.522;2022-07-01T12:54:47;18.15;;;10.68;;
57718;SDS011;43561;50.090;18.522;2022-07-01T13:04:50;15.88;;;11.10;;
57718;SDS011;43561;50.090;18.522;2022-07-01T13:14:53;12.15;;;10.68;;
57718;SDS011;43561;50.090;18.522;2022-07-01T13:24:55;11.20;;;10.20;;
57718;SDS011;43561;50.090;18.522;2022-07-01T13:34:57;16.58;;;10.30;;
57718;SDS011;43561;50.090;18.522;2022-07-01T13:44:59;21.17;;;11.52;;
57718;SDS011;43561;50.090;18.522;2022-07-01T13:55:01;11.23;;;9.98;;
57718;SDS011;43561;50.090;18.522;2022-07-01T14:05:04;16.58;;;13.88;;
57718;SDS011;43561;50.090;18.522;2022-07-01T14:15:06;12.80;;;10.30;;
57718;SDS011;43561;50.090;18.522;2022-07-01T14:25:08;15.35;;;12.82;;
57718;SDS011;43561;50.090;18.522;2022-07-01T14:35:12;14.18;;;11.30;;
57718;SDS011;43561;50.090;18.522;2022-07-01T14:45:14;18.35;;;13.57;;
57718;SDS011;43561;50.090;18.522;2022-07-01T14:55:16;13.98;;;12.45;;
57718;SDS011;43561;50.090;18.522;2022-07-01T15:05:18;12.00;;;10.77;;
57718;SDS011;43561;50.090;18.522;2022-07-01T15:15:20;18.65;;;12.30;;
57718;SDS011;43561;50.090;18.522;2022-07-01T15:25:22;12.77;;;11.27;;
57718;SDS011;43561;50.090;18.522;2022-07-01T15:35:24;15.05;;;10.70;;
57718;SDS011;43561;50.090;18.522;2022-07-01T15:45:26;16.17;;;12.88;;
57718;SDS011;43561;50.090;18.522;2022-07-01T15:55:28;12.15;;;10.75;;
57718;SDS011;43561;50.090;18.522;2022-07-01T16:05:30;19.58;;;11.35;;
57718;SDS011;43561;50.090;18.522;2022-07-01T16:15:33;11.07;;;10.07;;
57718;SDS011;43561;50.090;18.522;2022-07-01T16:25:35;16.50;;;12.38;;
57718;SDS011;43561;50.090;18.522;2022-07-01T16:35:43;31.02;;;20.83;;
57718;SDS011;43561;50.090;18.522;2022-07-01T16:45:50;33.75;;;17.25;;
57718;SDS011;43561;50.090;18.522;2022-07-01T16:55:54;29.40;;;18.15;;
57718;SDS011;43561;50.090;18.522;2022-07-01T17:05:56;27.15;;;14.23;;
57718;SDS011;43561;50.090;18.522;2022-07-01T17:15:58;15.27;;;12.25;;
57718;SDS011;43561;50.090;18.522;2022-07-01T17:26:04;17.33;;;14.68;;
57718;SDS011;43561;50.090;18.522;2022-07-01T17:36:23;12.23;;;9.88;;
57718;SDS011;43561;50.090;18.522;2022-07-01T17:46:26;12.88;;;8.20;;
57718;SDS011;43561;50.090;18.522;2022-07-01T17:56:29;11.38;;;7.10;;
57718;SDS011;43561;50.090;18.522;2022-07-01T18:06:31;12.05;;;9.48;;
57718;SDS011;43561;50.090;18.522;2022-07-01T18:27:00;11.68;;;9.18;;
57718;SDS011;43561;50.090;18.522;2022-07-01T18:37:10;31.77;;;18.30;;
57718;SDS011;43561;50.090;18.522;2022-07-01T18:47:13;26.02;;;19.35;;
57718;SDS011;43561;50.090;18.522;2022-07-01T18:57:15;26.50;;;19.48;;
57718;SDS011;43561;50.090;18.522;2022-07-01T19:07:17;42.55;;;23.17;;
57718;SDS011;43561;50.090;18.522;2022-07-01T19:17:20;25.45;;;18.55;;
57718;SDS011;43561;50.090;18.522;2022-07-01T19:27:22;24.40;;;18.90;;
57718;SDS011;43561;50.090;18.522;2022-07-01T19:37:24;14.35;;;12.40;;
57718;SDS011;43561;50.090;18.522;2022-07-01T19:47:27;15.85;;;14.07;;
57718;SDS011;43561;50.090;18.522;2022-07-01T19:57:29;15.63;;;12.93;;
57718;SDS011;43561;50.090;18.522;2022-07-01T20:07:31;21.52;;;16.42;;
57718;SDS011;43561;50.090;18.522;2022-07-01T20:17:40;16.17;;;13.60;;
57718;SDS011;43561;50.090;18.522;2022-07-01T20:27:42;22.38;;;18.80;;
57718;SDS011;43561;50.090;18.522;2022-07-01T20:37:45;22.50;;;16.77;;
57718;SDS011;43561;50.090;18.522;2022-07-01T20:47:47;19.50;;;15.45;;
57718;SDS011;43561;50.090;18.522;2022-07-01T20:57:50;12.05;;;10.13;;
57718;SDS011;43561;50.090;18.522;2022-07-01T21:07:52;14.10;;;11.68;;
57718;SDS011;43561;50.090;18.522;2022-07-01T21:17:55;25.30;;;9.02;;
57718;SDS011;43561;50.090;18.522;2022-07-01T21:27:57;8.50;;;7.13;;
57718;SDS011;43561;50.090;18.522;2022-07-01T21:37:59;9.73;;;6.28;;
57718;SDS011;43561;50.090;18.522;2022-07-01T21:48:02;6.13;;;4.35;;
57718;SDS011;43561;50.090;18.522;2022-07-01T21:58:05;5.25;;;3.80;;
57718;SDS011;43561;50.090;18.522;2022-07-01T22:08:09;10.48;;;4.55;;
57718;SDS011;43561;50.090;18.522;2022-07-01T22:18:12;4.88;;;4.47;;
57718;SDS011;43561;50.090;18.522;2022-07-01T22:28:16;5.70;;;2.95;;
57718;SDS011;43561;50.090;18.522;2022-07-01T22:38:19;5.55;;;3.08;;
57718;SDS011;43561;50.090;18.522;2022-07-01T22:48:30;7.75;;;5.15;;
57718;SDS011;43561;50.090;18.522;2022-07-01T22:58:41;6.25;;;5.15;;
57718;SDS011;43561;50.090;18.522;2022-07-01T23:18:49;11.82;;;5.72;;
57718;SDS011;43561;50.090;18.522;2022-07-01T23:28:52;6.28;;;4.38;;
57718;SDS011;43561;50.090;18.522;2022-07-01T23:39:15;5.47;;;3.80;;
57718;SDS011;43561;50.090;18.522;2022-07-01T23:49:18;4.05;;;3.67;;
57718;SDS011;43561;50.090;18.522;2022-07-01T23:59:20;6.53;;;4.57;;
